createdAt,value
2022-10-19T00:01:30.508Z,1.70
2022-10-19T00:04:08.775Z,2.00
2022-10-19T00:06:45.953Z,2.00
2022-10-19T00:09:23.185Z,1.80
2022-10-19T00:11:58.939Z,2.10
2022-10-19T00:14:34.793Z,2.20
2022-10-19T00:17:10.466Z,2.40
2022-10-19T00:19:46.312Z,2.60
2022-10-19T00:22:22.115Z,2.90
2022-10-19T00:25:00.638Z,3.20
2022-10-19T00:27:37.875Z,3.20
2022-10-19T00:30:15.320Z,3.50
2022-10-19T00:32:51.607Z,4.20
2022-10-19T00:35:27.611Z,4.20
2022-10-19T00:38:03.726Z,4.50
2022-10-19T00:40:44.827Z,4.20
2022-10-19T00:43:24.439Z,4.00
2022-10-19T00:46:00.127Z,4.60
2022-10-19T00:48:37.395Z,4.50
2022-10-19T00:51:13.986Z,4.50
2022-10-19T00:53:49.946Z,4.50
2022-10-19T00:56:26.233Z,4.30
2022-10-19T00:59:02.943Z,3.90
2022-10-19T01:01:39.534Z,4.00
2022-10-19T01:04:16.496Z,4.00
2022-10-19T01:06:52.731Z,4.50
2022-10-19T01:09:28.520Z,4.40
2022-10-19T01:12:23.091Z,4.60
2022-10-19T01:15:23.112Z,4.30
2022-10-19T01:18:13.544Z,4.50
2022-10-19T01:21:22.810Z,4.70
2022-10-19T01:24:53.136Z,4.70
2022-10-19T01:27:58.941Z,5.00
2022-10-19T01:30:54.027Z,4.50
2022-10-19T01:33:51.578Z,4.70
2022-10-19T01:36:38.435Z,5.20
2022-10-19T01:39:25.113Z,5.20
2022-10-19T01:42:12.895Z,5.20
2022-10-19T01:44:59.870Z,5.50
2022-10-19T01:47:44.148Z,5.10
2022-10-19T01:50:28.568Z,5.10
2022-10-19T01:53:06.950Z,5.60
2022-10-19T01:55:48.864Z,5.00
2022-10-19T01:58:32.637Z,5.20
2022-10-19T02:01:14.944Z,5.30
2022-10-19T02:03:52.671Z,5.30
2022-10-19T02:06:28.712Z,5.90
2022-10-19T02:09:04.681Z,6.30
2022-10-19T02:11:44.169Z,5.80
2022-10-19T02:14:29.841Z,6.50
2022-10-19T02:19:45.874Z,6.10
2022-10-19T02:22:22.118Z,6.90
2022-10-19T02:24:58.008Z,7.20
2022-10-19T02:27:34.056Z,7.40
2022-10-19T02:30:14.078Z,7.00
2022-10-19T02:32:50.686Z,7.90
2022-10-19T02:35:26.505Z,7.90
2022-10-19T02:38:05.936Z,8.10
2022-10-19T02:40:55.551Z,8.10
2022-10-19T02:43:36.222Z,8.40
2022-10-19T02:46:21.730Z,9.10
2022-10-19T02:49:00.104Z,9.10
2022-10-19T02:51:56.933Z,8.70
2022-10-19T02:54:33.247Z,9.40
2022-10-19T02:57:18.736Z,9.30
2022-10-19T02:59:54.812Z,10.30
2022-10-19T03:02:31.034Z,10.50
2022-10-19T03:05:07.827Z,10.40
2022-10-19T03:07:43.552Z,11.10
2022-10-19T03:10:19.322Z,11.20
2022-10-19T03:12:55.123Z,12.10
2022-10-19T03:15:30.980Z,10.90
2022-10-19T03:18:07.023Z,11.40
2022-10-19T03:20:42.886Z,10.60
2022-10-19T03:23:18.857Z,11.40
2022-10-19T03:25:54.484Z,11.80
2022-10-19T03:28:30.494Z,11.10
2022-10-19T03:31:06.880Z,11.50
2022-10-19T03:33:42.568Z,10.80
2022-10-19T03:36:29.835Z,11.60
2022-10-19T03:39:09.845Z,11.50
2022-10-19T03:41:46.409Z,11.70
2022-10-19T03:44:22.215Z,11.10
2022-10-19T03:46:58.006Z,12.20
2022-10-19T03:49:35.647Z,12.20
2022-10-19T03:52:14.252Z,11.90
2022-10-19T03:54:52.303Z,19.50
2022-10-19T03:57:28.112Z,12.70
2022-10-19T04:00:04.141Z,12.00
2022-10-19T04:02:47.979Z,12.70
2022-10-19T04:05:23.755Z,12.50
2022-10-19T04:07:59.471Z,13.20
2022-10-19T04:10:36.561Z,12.60
2022-10-19T04:13:12.305Z,12.20
2022-10-19T04:15:48.207Z,12.40
2022-10-19T04:18:24.199Z,12.40
2022-10-19T04:21:06.085Z,13.60
2022-10-19T04:26:16.581Z,11.30
2022-10-19T04:28:52.582Z,12.20
2022-10-19T04:31:29.619Z,11.60
2022-10-19T04:34:05.884Z,12.40
2022-10-19T04:36:42.225Z,12.20
2022-10-19T04:39:18.100Z,13.70
2022-10-19T04:41:53.777Z,12.70
2022-10-19T04:44:29.531Z,12.20
2022-10-19T04:47:05.284Z,12.10
2022-10-19T04:49:40.929Z,11.80
2022-10-19T04:52:16.642Z,11.90
2022-10-19T04:54:52.899Z,12.00
2022-10-19T04:57:28.660Z,12.40
2022-10-19T05:00:05.376Z,13.30
2022-10-19T05:02:45.830Z,12.20
2022-10-19T05:05:21.875Z,11.80
2022-10-19T05:07:58.455Z,11.60
2022-10-19T05:10:35.240Z,11.50
2022-10-19T05:13:12.277Z,11.60
2022-10-19T05:15:58.280Z,10.90
2022-10-19T05:18:34.830Z,11.10
2022-10-19T05:21:14.927Z,11.10
2022-10-19T05:23:54.463Z,11.40
2022-10-19T05:26:31.545Z,11.00
2022-10-19T05:29:07.430Z,10.90
2022-10-19T05:31:46.619Z,10.90
2022-10-19T05:34:22.863Z,11.70
2022-10-19T05:36:59.250Z,10.00
2022-10-19T05:39:35.185Z,11.00
2022-10-19T05:42:10.854Z,10.80
2022-10-19T05:44:46.802Z,11.60
2022-10-19T05:47:23.633Z,10.90
2022-10-19T05:50:00.965Z,11.70
2022-10-19T05:52:36.845Z,11.40
2022-10-19T05:55:14.394Z,10.70
2022-10-19T05:57:50.254Z,11.20
2022-10-19T06:00:26.435Z,10.50
2022-10-19T06:03:02.211Z,8.70
2022-10-19T06:05:40.240Z,8.20
2022-10-19T06:08:16.200Z,7.20
2022-10-19T06:10:53.328Z,6.70
2022-10-19T06:13:30.842Z,6.40
2022-10-19T06:16:08.079Z,6.70
2022-10-19T06:18:44.787Z,6.60
2022-10-19T06:21:23.389Z,6.90
2022-10-19T06:24:02.483Z,7.00
2022-10-19T06:26:39.069Z,5.80
2022-10-19T06:29:15.334Z,6.20
2022-10-19T06:31:52.295Z,6.00
2022-10-19T06:34:28.399Z,6.40
2022-10-19T06:37:04.298Z,6.00
2022-10-19T06:39:40.447Z,5.90
2022-10-19T06:42:16.498Z,6.40
2022-10-19T06:44:52.270Z,5.80
2022-10-19T06:47:33.422Z,5.60
2022-10-19T06:50:11.541Z,5.60
2022-10-19T06:52:47.582Z,5.40
2022-10-19T06:55:23.657Z,5.40
2022-10-19T06:58:01.832Z,5.40
2022-10-19T07:00:38.034Z,4.90
2022-10-19T07:03:13.971Z,4.50
2022-10-19T07:05:57.657Z,4.60
2022-10-19T07:08:35.848Z,4.60
2022-10-19T07:11:16.583Z,4.80
2022-10-19T07:13:53.310Z,4.30
2022-10-19T07:16:29.208Z,4.30
2022-10-19T07:19:06.068Z,4.20
2022-10-19T07:21:43.796Z,4.30
2022-10-19T07:24:19.815Z,4.20
2022-10-19T07:26:55.614Z,4.70
2022-10-19T07:29:31.500Z,4.40
2022-10-19T07:32:07.813Z,4.00
2022-10-19T07:34:43.585Z,4.20
2022-10-19T07:37:19.233Z,4.60
2022-10-19T07:39:54.969Z,4.40
2022-10-19T07:42:32.576Z,4.20
2022-10-19T07:45:10.102Z,4.20
2022-10-19T07:47:45.828Z,4.80
2022-10-19T07:50:23.210Z,6.10
2022-10-19T07:52:59.767Z,7.30
2022-10-19T07:55:36.542Z,7.90
2022-10-19T07:58:12.407Z,6.70
2022-10-19T08:00:48.265Z,6.20
2022-10-19T08:06:22.546Z,6.90
2022-10-19T08:08:59.310Z,6.40
2022-10-19T08:11:40.150Z,6.20
2022-10-19T08:14:15.972Z,7.00
2022-10-19T08:16:52.131Z,7.10
2022-10-19T08:19:28.404Z,7.30
2022-10-19T08:22:04.316Z,7.40
2022-10-19T08:24:40.273Z,7.50
2022-10-19T08:27:16.168Z,7.30
2022-10-19T08:29:52.604Z,7.70
2022-10-19T08:32:28.439Z,7.70
2022-10-19T08:35:08.507Z,6.50
2022-10-19T08:37:46.842Z,5.40
2022-10-19T08:40:29.015Z,6.20
2022-10-19T08:43:14.730Z,5.90
2022-10-19T08:45:58.365Z,5.40
2022-10-19T08:48:39.406Z,6.50
2022-10-19T08:51:16.335Z,6.30
2022-10-19T08:54:01.609Z,5.50
2022-10-19T08:56:51.085Z,5.20
2022-10-19T08:59:43.954Z,4.40
2022-10-19T09:02:42.766Z,4.40
2022-10-19T09:05:31.807Z,4.20
2022-10-19T09:08:14.160Z,4.90
2022-10-19T09:10:57.463Z,4.60
2022-10-19T09:14:00.477Z,4.40
2022-10-19T09:16:39.134Z,4.40
2022-10-19T09:19:29.296Z,4.10
2022-10-19T09:22:16.479Z,3.90
2022-10-19T09:24:57.166Z,3.70
2022-10-19T09:27:40.376Z,4.00
2022-10-19T09:30:24.947Z,3.60
2022-10-19T09:33:05.814Z,3.20
2022-10-19T09:35:47.905Z,3.10
2022-10-19T09:38:31.583Z,3.00
2022-10-19T09:41:21.362Z,2.60
2022-10-19T09:43:59.070Z,2.70
2022-10-19T09:46:52.406Z,2.70
2022-10-19T09:49:47.067Z,2.40
2022-10-19T09:52:38.179Z,1.50
2022-10-19T09:55:35.423Z,1.70
2022-10-19T09:58:27.026Z,1.70
2022-10-19T10:01:06.303Z,1.50
2022-10-19T10:03:43.678Z,1.40
2022-10-19T10:06:22.474Z,1.70
2022-10-19T10:09:00.838Z,1.70
2022-10-19T10:11:44.615Z,2.00
2022-10-19T10:14:28.709Z,1.90
2022-10-19T10:17:15.564Z,2.10
2022-10-19T10:20:21.683Z,1.90
2022-10-19T10:23:06.055Z,1.80
2022-10-19T10:25:51.433Z,2.10
2022-10-19T10:28:30.101Z,1.80
2022-10-19T10:31:10.442Z,2.20
2022-10-19T10:36:36.896Z,1.90
2022-10-19T10:39:19.059Z,1.90
2022-10-19T10:41:56.878Z,1.50
2022-10-19T10:44:36.892Z,1.80
2022-10-19T10:47:20.567Z,1.60
2022-10-19T10:50:03.991Z,1.80
2022-10-19T10:53:01.023Z,1.70
2022-10-19T10:55:37.470Z,2.00
2022-10-19T10:58:29.614Z,1.90
2022-10-19T11:01:24.949Z,1.90
2022-10-19T11:04:09.759Z,1.70
2022-10-19T11:06:54.097Z,1.70
2022-10-19T11:09:37.703Z,1.90
2022-10-19T11:12:20.310Z,2.00
2022-10-19T11:15:13.113Z,1.90
2022-10-19T11:18:14.302Z,1.90
2022-10-19T11:21:03.348Z,1.80
2022-10-19T11:24:07.143Z,1.60
2022-10-19T11:27:07.782Z,1.50
2022-10-19T11:30:13.274Z,1.70
2022-10-19T11:33:05.375Z,1.50
2022-10-19T11:38:54.764Z,1.70
2022-10-19T11:41:46.105Z,1.90
2022-10-19T11:44:47.994Z,1.50
2022-10-19T11:47:51.657Z,1.70
2022-10-19T11:50:54.224Z,1.80
2022-10-19T11:53:52.983Z,1.60
2022-10-19T11:57:01.767Z,2.10
2022-10-19T12:00:13.999Z,2.10
2022-10-19T12:03:24.905Z,1.70
2022-10-19T12:06:24.831Z,1.90
2022-10-19T12:09:23.395Z,1.70
2022-10-19T12:12:19.205Z,1.80
2022-10-19T12:15:04.373Z,1.80
2022-10-19T12:17:47.565Z,1.90
2022-10-19T12:20:33.338Z,1.80
2022-10-19T12:23:35.798Z,1.90
2022-10-19T12:26:16.307Z,1.60
2022-10-19T12:28:59.747Z,2.20
2022-10-19T12:31:36.803Z,2.00
2022-10-19T12:34:31.876Z,2.00
2022-10-19T12:37:20.346Z,1.70
2022-10-19T12:40:05.891Z,2.10
2022-10-19T12:42:55.079Z,1.80
2022-10-19T12:45:37.688Z,1.70
2022-10-19T12:48:26.121Z,1.90
2022-10-19T12:51:16.081Z,1.80
2022-10-19T12:54:09.496Z,1.60
2022-10-19T12:56:56.609Z,2.00
2022-10-19T12:59:37.549Z,1.90
2022-10-19T13:05:33.060Z,1.90
2022-10-19T13:08:25.351Z,2.30
2022-10-19T13:11:15.699Z,2.00
2022-10-19T13:14:03.849Z,1.90
2022-10-19T13:17:11.570Z,1.60
2022-10-19T13:19:47.947Z,2.00
2022-10-19T13:22:33.599Z,2.00
2022-10-19T13:25:31.613Z,2.00
2022-10-19T13:28:52.980Z,2.50
2022-10-19T13:31:34.354Z,2.30
2022-10-19T13:34:18.193Z,2.20
2022-10-19T13:37:13.491Z,2.50
2022-10-19T13:39:50.366Z,2.40
2022-10-19T13:42:31.147Z,2.50
2022-10-19T13:45:21.648Z,2.60
2022-10-19T13:48:07.778Z,2.70
2022-10-19T13:50:58.610Z,2.70
2022-10-19T13:53:49.483Z,2.30
2022-10-19T13:57:07.530Z,2.50
2022-10-19T14:00:15.072Z,2.40
2022-10-19T14:03:27.335Z,2.50
2022-10-19T14:10:09.427Z,2.50
2022-10-19T14:12:47.948Z,2.30
2022-10-19T14:15:32.824Z,2.40
2022-10-19T14:18:27.907Z,2.60
2022-10-19T14:21:07.434Z,2.40
2022-10-19T14:23:44.188Z,2.60
2022-10-19T14:26:25.954Z,2.50
2022-10-19T14:29:03.237Z,2.80
2022-10-19T14:31:41.316Z,2.80
2022-10-19T14:34:18.131Z,2.80
2022-10-19T14:36:56.229Z,3.10
2022-10-19T14:39:36.950Z,2.90
2022-10-19T14:42:14.974Z,3.00
2022-10-19T14:44:51.025Z,2.80
2022-10-19T14:47:30.524Z,2.80
2022-10-19T14:50:12.337Z,3.00
2022-10-19T14:55:25.454Z,2.90
2022-10-19T14:58:01.836Z,2.70
2022-10-19T15:00:40.614Z,2.60
2022-10-19T15:03:27.182Z,2.70
2022-10-19T15:06:09.038Z,2.90
2022-10-19T15:11:34.474Z,2.60
2022-10-19T15:14:22.022Z,2.80
2022-10-19T15:17:01.447Z,3.40
2022-10-19T15:19:46.127Z,2.30
2022-10-19T15:22:39.345Z,3.40
2022-10-19T15:25:37.183Z,2.50
2022-10-19T15:28:40.706Z,3.70
2022-10-19T15:31:26.333Z,3.90
2022-10-19T15:34:05.515Z,3.40
2022-10-19T15:36:58.070Z,5.00
2022-10-19T15:39:41.172Z,3.10
2022-10-19T15:42:42.907Z,2.70
2022-10-19T15:45:38.603Z,2.90
2022-10-19T15:48:51.202Z,3.00
2022-10-19T15:51:53.360Z,2.70
2022-10-19T15:54:29.827Z,2.60
2022-10-19T15:57:23.436Z,2.60
2022-10-19T16:00:02.404Z,2.50
2022-10-19T16:02:40.994Z,3.30
2022-10-19T16:05:18.370Z,3.60
2022-10-19T16:07:55.072Z,3.50
2022-10-19T16:10:31.952Z,3.70
2022-10-19T16:13:07.724Z,3.50
2022-10-19T16:15:44.618Z,3.70
2022-10-19T16:18:21.949Z,3.70
2022-10-19T16:20:57.951Z,4.40
2022-10-19T16:23:39.423Z,4.50
2022-10-19T16:26:20.511Z,3.70
2022-10-19T16:28:56.892Z,13.60
2022-10-19T16:31:34.399Z,3.60
2022-10-19T16:34:10.149Z,4.00
2022-10-19T16:36:46.374Z,3.80
2022-10-19T16:39:22.429Z,4.30
2022-10-19T16:41:58.252Z,3.50
2022-10-19T16:44:34.449Z,4.40
2022-10-19T16:47:10.704Z,4.30
2022-10-19T16:49:46.718Z,4.50
2022-10-19T16:52:22.438Z,3.80
2022-10-19T16:54:58.691Z,3.30
2022-10-19T16:57:34.953Z,2.70
2022-10-19T17:00:14.538Z,3.00
2022-10-19T17:02:50.647Z,2.90
2022-10-19T17:05:27.012Z,2.70
2022-10-19T17:08:05.361Z,2.60
2022-10-19T17:10:41.281Z,2.80
2022-10-19T17:13:17.345Z,2.90
2022-10-19T17:15:53.266Z,2.80
2022-10-19T17:18:29.343Z,2.80
2022-10-19T17:21:12.870Z,3.10
2022-10-19T17:23:52.091Z,3.10
2022-10-19T17:26:35.119Z,3.00
2022-10-19T17:29:11.528Z,3.40
2022-10-19T17:31:48.187Z,5.20
2022-10-19T17:34:23.967Z,4.60
2022-10-19T17:37:00.204Z,5.50
2022-10-19T17:39:36.431Z,4.70
2022-10-19T17:42:12.293Z,4.50
2022-10-19T17:44:48.205Z,4.30
2022-10-19T17:47:24.123Z,3.80
2022-10-19T17:50:02.314Z,3.90
2022-10-19T17:52:38.188Z,3.50
2022-10-19T17:55:14.845Z,3.30
2022-10-19T17:57:51.964Z,3.50
2022-10-19T18:00:28.105Z,3.50
2022-10-19T18:03:04.118Z,3.10
2022-10-19T18:05:40.089Z,3.20
2022-10-19T18:08:16.002Z,3.80
2022-10-19T18:10:57.483Z,3.80
2022-10-19T18:13:34.844Z,3.70
2022-10-19T18:16:15.496Z,3.50
2022-10-19T18:18:55.063Z,3.20
2022-10-19T18:21:34.954Z,3.80
2022-10-19T18:24:16.837Z,3.60
2022-10-19T18:29:29.881Z,3.90
2022-10-19T18:34:46.658Z,3.80
2022-10-19T18:37:22.803Z,4.00
2022-10-19T18:40:00.809Z,3.80
2022-10-19T18:42:37.315Z,3.50
2022-10-19T18:45:15.466Z,4.20
2022-10-19T18:47:51.467Z,3.60
2022-10-19T18:50:27.773Z,3.80
2022-10-19T18:53:03.725Z,4.40
2022-10-19T18:55:42.664Z,4.30
2022-10-19T18:58:18.854Z,4.20
2022-10-19T19:01:07.139Z,4.30
2022-10-19T19:03:49.671Z,5.40
2022-10-19T19:06:29.508Z,5.10
2022-10-19T19:09:13.818Z,4.60
2022-10-19T19:11:57.736Z,4.70
2022-10-19T19:14:35.279Z,6.10
2022-10-19T19:17:12.704Z,5.00
2022-10-19T19:19:49.487Z,4.80
2022-10-19T19:22:30.125Z,4.70
2022-10-19T19:25:13.048Z,5.10
2022-10-19T19:27:53.597Z,5.20
2022-10-19T19:30:35.892Z,5.20
2022-10-19T19:33:20.171Z,4.80
2022-10-19T19:35:56.445Z,4.70
2022-10-19T19:38:33.352Z,4.60
2022-10-19T19:41:14.313Z,5.20
2022-10-19T19:43:52.412Z,4.80
2022-10-19T19:46:29.421Z,4.80
2022-10-19T19:49:07.980Z,4.80
2022-10-19T19:51:44.033Z,5.60
2022-10-19T19:54:21.393Z,4.80
2022-10-19T19:56:58.112Z,5.10
2022-10-19T19:59:34.197Z,4.80
2022-10-19T20:02:10.228Z,12.70
2022-10-19T20:04:46.288Z,6.60
2022-10-19T20:07:22.343Z,5.40
2022-10-19T20:09:58.711Z,5.40
2022-10-19T20:12:34.639Z,6.00
2022-10-19T20:15:18.954Z,6.20
2022-10-19T20:17:55.070Z,5.80
2022-10-19T20:20:30.849Z,6.80
2022-10-19T20:23:07.157Z,6.50
2022-10-19T20:25:44.328Z,6.50
2022-10-19T20:28:20.301Z,6.00
2022-10-19T20:31:07.240Z,19.50
2022-10-19T20:33:47.373Z,8.50
2022-10-19T20:36:26.871Z,6.00
2022-10-19T20:39:03.447Z,6.90
2022-10-19T20:41:39.322Z,6.40
2022-10-19T20:44:15.104Z,23.40
2022-10-19T20:46:53.354Z,7.20
2022-10-19T20:49:29.480Z,5.70
2022-10-19T20:52:05.553Z,6.00
2022-10-19T20:54:41.517Z,5.70
2022-10-19T20:57:17.545Z,5.90
2022-10-19T20:59:54.494Z,5.80
2022-10-19T21:02:30.333Z,5.90
2022-10-19T21:05:07.095Z,5.60
2022-10-19T21:07:43.559Z,5.90
2022-10-19T21:10:19.599Z,5.80
2022-10-19T21:12:55.646Z,5.90
2022-10-19T21:15:31.507Z,5.90
2022-10-19T21:18:07.252Z,5.70
2022-10-19T21:20:43.107Z,5.70
2022-10-19T21:23:19.165Z,5.40
2022-10-19T21:26:01.080Z,5.30
2022-10-19T21:31:13.022Z,5.40
2022-10-19T21:33:49.554Z,5.20
2022-10-19T21:36:26.760Z,5.90
2022-10-19T21:39:02.785Z,7.40
2022-10-19T21:41:38.996Z,6.90
2022-10-19T21:44:15.455Z,5.60
2022-10-19T21:46:52.863Z,5.60
2022-10-19T21:49:28.664Z,5.10
2022-10-19T21:52:04.518Z,5.50
2022-10-19T21:54:40.477Z,5.30
2022-10-19T21:57:16.309Z,5.10
2022-10-19T21:59:52.225Z,5.40
2022-10-19T22:02:31.122Z,5.40
2022-10-19T22:05:07.520Z,6.00
2022-10-19T22:07:43.226Z,5.60
2022-10-19T22:10:19.384Z,6.10
2022-10-19T22:12:56.319Z,6.20
2022-10-19T22:15:32.012Z,7.10
2022-10-19T22:18:08.174Z,6.50
2022-10-19T22:20:44.410Z,6.50
2022-10-19T22:23:20.101Z,6.00
2022-10-19T22:25:55.892Z,5.40
2022-10-19T22:28:32.003Z,5.20
2022-10-19T22:31:08.062Z,5.00
2022-10-19T22:33:44.453Z,4.40
2022-10-19T22:36:20.595Z,4.50
2022-10-19T22:38:56.348Z,4.40
2022-10-19T22:41:32.455Z,3.70
2022-10-19T22:44:08.946Z,3.90
2022-10-19T22:46:45.607Z,3.90
2022-10-19T22:49:21.794Z,3.90
2022-10-19T22:51:57.965Z,3.60
2022-10-19T22:54:34.232Z,3.50
2022-10-19T22:57:11.868Z,3.30
2022-10-19T22:59:47.971Z,3.20
2022-10-19T23:02:24.970Z,3.30
2022-10-19T23:05:01.037Z,3.50
2022-10-19T23:07:38.401Z,3.00
2022-10-19T23:10:15.816Z,2.80
2022-10-19T23:12:54.912Z,3.20
2022-10-19T23:15:31.103Z,2.80
2022-10-19T23:18:07.243Z,3.20
2022-10-19T23:20:43.327Z,3.00
2022-10-19T23:23:19.432Z,3.00
2022-10-19T23:26:07.247Z,2.80
2022-10-19T23:28:46.278Z,3.00
2022-10-19T23:31:26.356Z,2.90
2022-10-19T23:34:02.488Z,3.10
2022-10-19T23:36:38.637Z,2.90
2022-10-19T23:39:14.872Z,3.00
2022-10-19T23:41:50.608Z,3.30
2022-10-19T23:44:26.544Z,2.60
2022-10-19T23:47:02.240Z,2.90
2022-10-19T23:49:37.963Z,2.90
2022-10-19T23:52:13.656Z,2.70
2022-10-19T23:54:49.408Z,3.10
2022-10-19T23:57:25.102Z,3.30
